Time;durP1;ratioP1;P1;durP2;ratioP2;P2;SDS_P1;SDS_P2;PMS_P1;PMS_P2;Temp;Humidity;BMP_temperature;BMP_pressure;BME280_temperature;BME280_humidity;BME280_pressure;Samples;Min_cycle;Max_cycle;Signal;HPM_P1;HPM_P2
2023/02/07 00:00:29;;;;;;;;;;;;;;;-0.50;100.00;66719.88;5050170;28;19925;-82
2023/02/07 00:02:56;;;;;;;;;;;;;;;;;;5049271;28;19928;-81
2023/02/07 00:05:21;;;;;;;;;;;;;;;;;;5047077;28;19917;-81
2023/02/07 00:07:46;;;;;;;;;;;;;;;-0.59;100.00;66715.00;5049060;28;20404;-81
2023/02/07 00:10:11;;;;;;;;;;;;;;;-0.58;100.00;66716.09;5047626;28;19952;-81
2023/02/07 00:12:37;;;;;;;;;;;;;;;-0.66;100.00;66709.72;5049044;28;20417;-84
2023/02/07 00:15:02;;;;;;;;;;;;;;;-0.69;100.00;66699.66;5048126;28;19943;-82
2023/02/07 00:17:28;;;;;;;;;;;;;;;-0.66;100.00;66709.72;5048337;28;20445;-79
2023/02/07 00:19:53;;;;;;;;;;;;;;;-0.68;100.00;66710.66;5047375;28;20457;-79
2023/02/07 00:22:18;;;;;;;;;;;;;;;-0.66;100.00;66712.34;5048976;28;20325;-83
2023/02/07 00:24:46;;;;;;;;;;;;;;;-0.74;100.00;66698.69;5048325;28;20189;-82
2023/02/07 00:27:12;;;;;;;;;;;;;;;-0.71;100.00;66702.06;5040871;28;20673;-80
2023/02/07 00:29:37;;;;;;;;;;;;;;;;;;5040417;28;19921;-84
2023/02/07 00:32:02;;;;;;;;;;;;;;;-0.75;100.00;66700.16;5045611;28;20663;-83
2023/02/07 00:34:27;;;;;;;;;;;;;;;-0.82;100.00;66692.88;5044915;28;19920;-81
2023/02/07 00:36:53;;;;;;;;;;;;;;;-0.82;100.00;66690.25;5043512;28;20019;-80
2023/02/07 00:39:18;;;;;;;;;;;;;;;-0.84;100.00;66690.63;5044886;28;19925;-80
2023/02/07 00:41:44;;;;;;;;;;;;;;;-0.84;100.00;66690.63;5045444;28;19967;-83
2023/02/07 00:44:10;;;;;;;;;;;;;;;-0.82;100.00;66690.25;5043227;28;20019;-82
2023/02/07 00:46:36;;;;;;;;;;;;;;;-0.91;100.00;66675.50;5044186;28;19996;-84
2023/02/07 00:49:01;;;;;;;;;;;;;;;-0.87;100.00;66684.63;5042634;28;19921;-83
2023/02/07 00:51:26;;;;;;;;;;;;;;;-0.86;100.00;66685.78;5044638;28;20306;-80
2023/02/07 00:53:55;;;;;;;;;;;;;;;-0.96;100.00;66679.75;5043996;28;19952;-82
2023/02/07 00:56:25;;;;;;;;;;;;;;;-0.92;100.00;66679.59;5043714;28;20409;-80
2023/02/07 00:58:51;;;;;;;;;;;;;;;-0.96;100.00;66669.31;5043512;28;20390;-82
2023/02/07 01:01:16;;;;;;;;;;;;;;;-0.95;100.00;66678.25;5044241;28;19928;-84
2023/02/07 01:03:41;;;;;;;;;;;;;;;;;;5044508;28;19928;-81
2023/02/07 01:06:08;;;;;;;;;;;;;;;-1.00;100.00;66675.84;5043081;28;19928;-84
2023/02/07 01:08:33;;;;;;;;;;;;;;;-1.08;100.00;66661.06;5045024;28;20580;-85
2023/02/07 01:10:58;;;;;;;;;;;;;;;;;;5044281;28;19981;-83
2023/02/07 01:13:24;;;;;;;;;;;;;;;-1.15;100.00;66659.00;5043494;28;19948;-81
2023/02/07 01:15:49;;;;;;;;;;;;;;;-1.14;100.00;66650.22;5043167;28;20301;-82
2023/02/07 01:18:14;;;;;;;;;;;;;;;;;;5043683;28;19959;-82
2023/02/07 01:20:39;;;;;;;;;;;;;;;-1.18;100.00;66650.38;5043990;28;20059;-85
2023/02/07 01:23:05;;;;;;;;;;;;;;;-1.19;100.00;66654.50;5043926;28;19921;-80
2023/02/07 01:25:30;;;;;;;;;;;;;;;-1.21;100.00;66650.19;5042949;28;20074;-82
2023/02/07 01:27:56;;;;;;;;;;;;;;;;;;5043607;28;19921;-83
2023/02/07 01:30:21;;;;;;;;;;;;;;;-1.15;100.00;66654.31;5044898;28;19925;-82
2023/02/07 01:32:46;;;;;;;;;;;;;;;-1.17;100.00;66659.34;5044539;28;21158;-84
2023/02/07 01:35:11;;;;;;;;;;;;;;;-1.18;100.00;66645.72;5043119;28;19932;-83
2023/02/07 01:37:37;;;;;;;;;;;;;;;-1.17;100.00;66654.69;5044210;28;19929;-86
2023/02/07 01:40:02;;;;;;;;;;;;;;;-1.19;100.00;66649.25;5044021;28;19940;-83
2023/02/07 01:42:27;;;;;;;;;;;;;;;-1.27;100.00;66640.28;5042147;28;19982;-80
2023/02/07 01:44:53;;;;;;;;;;;;;;;-1.28;100.00;66639.72;5043462;28;19928;-81
2023/02/07 01:47:20;;;;;;;;;;;;;;;-1.27;100.00;66643.44;5043967;28;19945;-84
2023/02/07 01:49:46;;;;;;;;;;;;;;;-1.30;100.00;66640.06;5044292;28;20307;-82
2023/02/07 01:52:15;;;;;;;;;;;;;;;-1.34;100.00;66632.44;5054618;28;19925;-85
2023/02/07 01:54:41;;;;;;;;;;;;;;;-1.40;100.00;66632.03;5043723;28;20065;-81
2023/02/07 01:57:06;;;;;;;;;;;;;;;;;;5042640;28;20457;-82
2023/02/07 01:59:32;;;;;;;;;;;;;;;-1.47;100.00;66618.38;5045007;28;19932;-85
2023/02/07 02:01:59;;;;;;;;;;;;;;;-1.48;100.00;66617.25;5032719;28;20689;-84
2023/02/07 02:04:24;;;;;;;;;;;;;;;;;;5059544;28;19932;-82
2023/02/07 02:06:49;;;;;;;;;;;;;;;-1.56;100.00;66608.28;5043332;28;19921;-85
2023/02/07 02:09:15;;;;;;;;;;;;;;;-1.54;100.00;66613.69;5044073;28;19925;-82
2023/02/07 02:11:58;;;;;;;;;;;;;;;-1.54;100.00;66613.69;5043792;28;19950;-82
2023/02/07 02:14:42;;;;;;;;;;;;;;;-1.62;100.00;66602.66;5043137;28;19949;-84
2023/02/07 02:17:27;;;;;;;;;;;;;;;-1.59;100.00;66611.25;5043021;28;19963;-86
2023/02/07 02:20:06;;;;;;;;;;;;;;;-1.65;100.00;66599.28;5044946;28;20515;-84
2023/02/07 02:22:50;;;;;;;;;;;;;;;-1.65;100.00;66604.50;5028554;28;19924;-85
2023/02/07 02:25:27;;;;;;;;;;;;;;;-1.55;100.00;66609.41;5047069;28;19968;-85
2023/02/07 02:28:05;;;;;;;;;;;;;;;-1.53;100.00;66616.88;5047335;28;19928;-83
2023/02/07 02:30:30;;;;;;;;;;;;;;;;;;5061651;28;19917;-87
2023/02/07 02:32:55;;;;;;;;;;;;;;;-1.53;100.00;66612.19;5047357;28;19927;-87
2023/02/07 02:35:39;;;;;;;;;;;;;;;-1.61;100.00;66609.00;5047521;28;20004;-88
2023/02/07 02:38:24;;;;;;;;;;;;;;;-1.54;100.00;66613.13;5048425;28;19933;-86
2023/02/07 02:40:53;;;;;;;;;;;;;;;-1.57;100.00;66610.31;5048282;28;19920;-83
2023/02/07 02:43:18;;;;;;;;;;;;;;;-1.63;100.00;66601.53;5047683;28;19982;-84
2023/02/07 02:45:43;;;;;;;;;;;;;;;;;;5046394;28;20478;-84
2023/02/07 02:48:10;;;;;;;;;;;;;;;-1.69;100.00;66596.88;5047135;28;19929;-84
2023/02/07 02:50:35;;;;;;;;;;;;;;;;;;5046993;28;19921;-88
2023/02/07 02:53:00;;;;;;;;;;;;;;;-1.74;100.00;66588.63;5047575;28;19925;-84
2023/02/07 02:55:45;;;;;;;;;;;;;;;-1.85;100.00;66577.41;5046876;28;20021;-85
2023/02/07 02:58:10;;;;;;;;;;;;;;;-1.92;100.00;66571.59;5047786;28;20407;-84
2023/02/07 03:00:38;;;;;;;;;;;;;;;-1.80;100.00;66587.69;5047873;28;20003;-85
2023/02/07 03:03:03;;;;;;;;;;;;;;;;;;5047286;28;19917;-87
2023/02/07 03:05:29;;;;;;;;;;;;;;;;;;5046240;28;20450;-83
2023/02/07 03:07:54;;;;;;;;;;;;;;;-1.88;100.00;66573.47;5044070;28;19924;-84
2023/02/07 03:10:28;;;;;;;;;;;;;;;-1.89;100.00;66574.97;5047656;28;20401;-86
2023/02/07 03:13:02;;;;;;;;;;;;;;;-1.90;100.00;66571.22;5048649;28;20772;-85
2023/02/07 03:15:30;;;;;;;;;;;;;;;-2.00;100.00;66554.81;5047751;28;19983;-86
2023/02/07 03:17:58;;;;;;;;;;;;;;;-1.96;100.00;66565.06;5047886;28;19936;-84
2023/02/07 03:20:53;;;;;;;;;;;;;;;-1.95;100.00;66566.19;5047350;28;19929;-87
2023/02/07 03:23:20;;;;;;;;;;;;;;;-2.02;100.00;66558.31;5038818;28;19921;-88
2023/02/07 03:25:46;;;;;;;;;;;;;;;-2.15;100.00;66544.31;5048685;28;19928;-85
2023/02/07 03:28:12;;;;;;;;;;;;;;;;;;5049248;28;20604;-84
2023/02/07 03:30:38;;;;;;;;;;;;;;;-2.12;100.00;66547.66;5045825;28;20788;-86
2023/02/07 03:33:06;;;;;;;;;;;;;;;-2.10;100.00;66549.91;5046954;28;19927;-85
2023/02/07 03:35:36;;;;;;;;;;;;;;;-2.12;100.00;66547.66;5045393;28;20457;-84
2023/02/07 03:38:01;;;;;;;;;;;;;;;;;;5045655;28;20349;-83
2023/02/07 03:40:33;;;;;;;;;;;;;;;-2.20;100.00;66543.34;5045258;28;20297;-85
2023/02/07 03:43:02;;;;;;;;;;;;;;;-2.17;100.00;66549.88;5036157;28;19931;-83
2023/02/07 03:45:28;;;;;;;;;;;;;;;-2.33;100.00;66524.69;5045445;28;19978;-85
2023/02/07 03:47:53;;;;;;;;;;;;;;;-2.48;100.00;66509.88;5046620;28;19932;-84
2023/02/07 03:50:18;;;;;;;;;;;;;;;-2.43;100.00;66518.09;5045606;28;19925;-85
2023/02/07 03:52:43;;;;;;;;;;;;;;;-2.44;100.00;66514.94;5046127;28;19974;-84
2023/02/07 03:55:09;;;;;;;;;;;;;;;-2.64;100.00;66490.47;5045599;28;19936;-84
2023/02/07 03:57:34;;;;;;;;;;;;;;;-2.70;100.00;66483.16;5040095;28;19946;-85
2023/02/07 04:00:00;;;;;;;;;;;;;;;-2.75;100.00;66478.13;5045132;28;19952;-84
2023/02/07 04:02:25;;;;;;;;;;;;;;;-2.77;100.00;66478.47;5046880;28;19924;-85
2023/02/07 04:04:50;;;;;;;;;;;;;;;-2.72;100.00;66481.47;5046727;28;20095;-84
2023/02/07 04:07:15;;;;;;;;;;;;;;;-2.72;100.00;66481.47;5045542;28;19921;-85
2023/02/07 04:09:41;;;;;;;;;;;;;;;-2.80;100.00;66475.13;5046774;28;19921;-84
2023/02/07 04:12:06;;;;;;;;;;;;;;;;;;5045349;28;19921;-86
2023/02/07 04:14:31;;;;;;;;;;;;;;;;;;5046052;28;19922;-84
2023/02/07 04:16:56;;;;;;;;;;;;;;;-3.00;100.00;66453.25;5044440;28;19925;-83
2023/02/07 04:19:21;;;;;;;;;;;;;;;-2.90;100.00;66463.91;5046194;28;19929;-84
2023/02/07 04:21:47;;;;;;;;;;;;;;;;;;5045828;28;19921;-86
2023/02/07 04:24:12;;;;;;;;;;;;;;;-3.05;100.00;66450.25;5047809;28;19948;-85
2023/02/07 04:26:37;;;;;;;;;;;;;;;-3.06;100.00;66444.47;5046165;28;21126;-85
2023/02/07 04:29:02;;;;;;;;;;;;;;;;;;5046785;28;19948;-84
2023/02/07 04:31:28;;;;;;;;;;;;;;;-3.11;100.00;66444.06;5047543;28;19921;-85
2023/02/07 04:33:53;;;;;;;;;;;;;;;-3.13;100.00;66441.84;5044952;28;19951;-85
2023/02/07 04:36:18;;;;;;;;;;;;;;;-3.12;100.00;66439.78;5042901;28;19921;-83
2023/02/07 04:38:43;;;;;;;;;;;;;;;-3.14;100.00;66435.50;5042376;28;19932;-84
2023/02/07 04:41:09;;;;;;;;;;;;;;;-3.14;100.00;66434.94;5043666;28;20618;-84
2023/02/07 04:43:35;;;;;;;;;;;;;;;-3.13;100.00;66436.63;5044582;28;20015;-81
2023/02/07 04:46:00;;;;;;;;;;;;;;;;;;5042275;28;19929;-83
2023/02/07 04:48:25;;;;;;;;;;;;;;;-3.18;100.00;66433.63;5045278;28;19921;-84
2023/02/07 04:50:51;;;;;;;;;;;;;;;-3.18;100.00;66436.22;5044059;28;19921;-83
2023/02/07 04:53:16;;;;;;;;;;;;;;;-3.24;100.00;66429.50;5043016;28;20023;-84
2023/02/07 04:55:41;;;;;;;;;;;;;;;-3.30;100.00;66420.75;5043034;28;19925;-84
2023/02/07 04:58:07;;;;;;;;;;;;;;;-3.30;100.00;66417.59;5043048;28;20366;-84
2023/02/07 05:00:32;;;;;;;;;;;;;;;-3.37;100.00;66410.28;5042956;28;19928;-83
2023/02/07 05:02:58;;;;;;;;;;;;;;;-3.40;100.00;66412.13;5045537;28;19925;-84
2023/02/07 05:05:23;;;;;;;;;;;;;;;;;;5042792;28;19956;-83
2023/02/07 05:07:48;;;;;;;;;;;;;;;;;;5044955;28;19920;-81
2023/02/07 05:10:13;;;;;;;;;;;;;;;-3.52;100.00;66399.25;5040819;28;20402;-82
2023/02/07 05:12:39;;;;;;;;;;;;;;;-3.50;100.00;66396.28;5043304;28;19929;-84
2023/02/07 05:15:04;;;;;;;;;;;;;;;-3.49;100.00;66404.66;5042244;28;19921;-84
2023/02/07 05:17:33;;;;;;;;;;;;;;;-3.54;100.00;66394.41;5043166;28;20043;-83
2023/02/07 05:19:58;;;;;;;;;;;;;;;;;;5043098;28;19943;-85
2023/02/07 05:22:24;;;;;;;;;;;;;;;-3.60;100.00;66387.09;5043331;28;19929;-84
2023/02/07 05:24:49;;;;;;;;;;;;;;;-3.64;100.00;66383.19;5045778;28;20577;-85
2023/02/07 05:27:14;;;;;;;;;;;;;;;-3.64;100.00;66380.59;5043731;28;20083;-85
2023/02/07 05:29:39;;;;;;;;;;;;;;;-3.66;100.00;66383.56;5042009;28;19948;-87
2023/02/07 05:34:48;;;;;;;;;;;;;;;-3.64;100.00;66383.75;5043002;28;19955;-83
2023/02/07 05:37:14;;;;;;;;;;;;;;;-3.68;100.00;66378.72;5042132;28;19952;-85
2023/02/07 05:39:39;;;;;;;;;;;;;;;-3.68;100.00;66378.72;5043230;28;19955;-85
2023/02/07 05:42:04;;;;;;;;;;;;;;;-3.70;100.00;66376.47;5041441;28;20006;-83
2023/02/07 05:44:29;;;;;;;;;;;;;;;-3.72;100.00;66374.22;5043096;28;21369;-84
2023/02/07 05:46:55;;;;;;;;;;;;;;;-3.72;100.00;66374.22;5040668;28;19925;-83
2023/02/07 05:49:20;;;;;;;;;;;;;;;;;;5044875;28;19920;-83
2023/02/07 05:51:45;;;;;;;;;;;;;;;-3.77;100.00;66371.78;5042196;28;19932;-84
2023/02/07 05:54:10;;;;;;;;;;;;;;;-3.78;100.00;66372.72;5043070;28;19929;-85
2023/02/07 05:56:35;;;;;;;;;;;;;;;-3.76;100.00;66369.75;5041118;28;20391;-85
2023/02/07 05:59:01;;;;;;;;;;;;;;;-3.78;100.00;66368.06;5046442;28;20000;-85
2023/02/07 06:01:26;;;;;;;;;;;;;;;-3.77;100.00;66366.59;5044449;28;19936;-84
2023/02/07 06:03:51;;;;;;;;;;;;;;;-3.80;100.00;66362.66;5040614;28;19925;-84
2023/02/07 06:06:17;;;;;;;;;;;;;;;-3.81;100.00;66366.75;5038365;28;19970;-84
2023/02/07 06:08:42;;;;;;;;;;;;;;;-3.86;100.00;66359.66;5045679;28;19925;-85
2023/02/07 06:11:07;;;;;;;;;;;;;;;-3.83;100.00;66365.06;5041926;28;19921;-84
2023/02/07 06:13:32;;;;;;;;;;;;;;;-3.83;100.00;66362.47;5048330;28;19920;-85
2023/02/07 06:15:58;;;;;;;;;;;;;;;;;;5044861;28;19921;-84
2023/02/07 06:18:23;;;;;;;;;;;;;;;-3.92;100.00;66355.53;5045118;28;20290;-86
2023/02/07 06:20:48;;;;;;;;;;;;;;;;;;5044883;28;20398;-84
2023/02/07 06:23:14;;;;;;;;;;;;;;;-3.99;100.00;66347.69;5044042;28;19921;-85
2023/02/07 06:25:39;;;;;;;;;;;;;;;-3.99;100.00;66337.31;5044257;28;20024;-85
2023/02/07 06:28:04;;;;;;;;;;;;;;;-3.93;100.00;66351.81;5044937;28;20397;-85
2023/02/07 06:30:30;;;;;;;;;;;;;;;-3.99;100.00;66347.69;5046691;28;19967;-85
2023/02/07 06:32:55;;;;;;;;;;;;;;;-4.04;100.00;66339.50;5047663;28;19924;-84
2023/02/07 06:35:20;;;;;;;;;;;;;;;-3.99;100.00;66344.56;5043390;28;19928;-84
2023/02/07 06:37:45;;;;;;;;;;;;;;;-4.01;100.00;66344.91;5047880;28;19932;-86
2023/02/07 06:40:11;;;;;;;;;;;;;;;-4.03;100.00;66337.47;5048747;28;19923;-84
2023/02/07 06:42:36;;;;;;;;;;;;;;;-4.05;100.00;66335.78;5049633;28;19920;-87
2023/02/07 06:45:01;;;;;;;;;;;;;;;-4.05;100.00;66335.78;5045527;28;20448;-85
2023/02/07 06:47:26;;;;;;;;;;;;;;;;;;5057825;28;19928;-84
2023/02/07 06:49:51;;;;;;;;;;;;;;;-4.03;100.00;66338.00;5056998;28;19917;-82
2023/02/07 06:52:17;;;;;;;;;;;;;;;-4.16;100.00;66326.06;5042803;28;20349;-86
2023/02/07 06:54:42;;;;;;;;;;;;;;;-4.16;100.00;66323.47;5042603;28;19925;-86
2023/02/07 06:57:07;;;;;;;;;;;;;;;-4.14;100.00;66330.91;5040753;28;19921;-82
2023/02/07 06:59:33;;;;;;;;;;;;;;;-4.13;100.00;66329.97;5043517;28;19963;-85
2023/02/07 07:01:59;;;;;;;;;;;;;;;-4.13;100.00;66329.41;5042593;28;20313;-83
2023/02/07 07:04:25;;;;;;;;;;;;;;;-4.08;100.00;66337.63;5041991;28;19929;-82
2023/02/07 07:06:50;;;;;;;;;;;;;;;-4.07;100.00;66335.59;5046460;28;20286;-81
2023/02/07 07:09:15;;;;;;;;;;;;;;;-4.10;100.00;66330.19;5045381;28;20377;-84
2023/02/07 07:11:42;;;;;;;;;;;;;;;-4.07;100.00;66335.59;5045715;28;19940;-84
2023/02/07 07:14:08;;;;;;;;;;;;;;;-4.08;100.00;66337.63;5045899;28;19924;-82
2023/02/07 07:16:34;;;;;;;;;;;;;;;-4.08;100.00;66332.44;5045758;28;20004;-82
2023/02/07 07:18:59;;;;;;;;;;;;;;;-4.15;100.00;66327.72;5043341;28;20008;-85
2023/02/07 07:21:26;;;;;;;;;;;;;;;-4.19;100.00;66320.09;5042917;28;19924;-83
2023/02/07 07:23:52;;;;;;;;;;;;;;;-4.16;100.00;66329.22;5042994;28;19927;-85
2023/02/07 07:26:17;;;;;;;;;;;;;;;-4.10;100.00;66335.94;5044030;28;19929;-85
2023/02/07 07:28:42;;;;;;;;;;;;;;;-4.08;100.00;66335.03;5046611;28;19931;-84
2023/02/07 07:31:08;;;;;;;;;;;;;;;-4.05;100.00;66335.78;5039647;28;19921;-83
2023/02/07 07:33:33;;;;;;;;;;;;;;;-4.04;100.00;66339.50;5045542;28;19921;-83
2023/02/07 07:35:59;;;;;;;;;;;;;;;-3.99;100.00;66347.69;5044038;28;20015;-84
2023/02/07 07:38:25;;;;;;;;;;;;;;;-4.02;100.00;66339.16;5045410;28;19932;-85
2023/02/07 07:40:50;;;;;;;;;;;;;;;-4.06;100.00;66336.69;5041199;28;19929;-85
2023/02/07 07:43:16;;;;;;;;;;;;;;;-3.95;100.00;66349.03;5038842;28;19925;-85
2023/02/07 07:45:41;;;;;;;;;;;;;;;-4.10;100.00;66333.34;5044908;28;19928;-85
2023/02/07 07:48:06;;;;;;;;;;;;;;;-4.12;100.00;66327.94;5045629;28;20900;-85
2023/02/07 07:50:31;;;;;;;;;;;;;;;-3.92;100.00;66350.34;5049397;28;19928;-84
2023/02/07 07:52:57;;;;;;;;;;;;;;;-3.75;100.00;66368.25;5048534;28;19925;-86
2023/02/07 07:55:22;;;;;;;;;;;;;;;-3.71;100.00;66375.34;5046859;28;20040;-85
2023/02/07 07:57:47;;;;;;;;;;;;;;;-3.73;100.00;66373.13;5047391;28;19925;-86
2023/02/07 08:00:13;;;;;;;;;;;;;;;-3.71;100.00;66375.34;5045697;28;19952;-87
2023/02/07 08:02:39;;;;;;;;;;;;;;;-3.63;100.00;66381.72;5049253;28;19943;-88
2023/02/07 08:05:04;;;;;;;;;;;;;;;-3.59;100.00;66388.25;5048030;28;19928;-87
2023/02/07 08:07:30;;;;;;;;;;;;;;;-3.55;100.00;66390.69;5048160;28;20031;-85
2023/02/07 08:09:55;;;;;;;;;;;;;;;-3.41;100.00;66406.38;5050084;28;19952;-86
2023/02/07 08:12:20;;;;;;;;;;;;;;;-3.31;100.00;66419.06;5051522;28;19928;-86
2023/02/07 08:14:45;;;;;;;;;;;;;;;;;;5050150;28;19963;-86
2023/02/07 08:17:10;;;;;;;;;;;;;;;-3.21;100.00;66432.88;5048143;28;19931;-86
2023/02/07 08:19:37;;;;;;;;;;;;;;;-3.18;100.00;66433.63;5050825;28;19931;-86
2023/02/07 08:22:02;;;;;;;;;;;;;;;-3.09;100.00;66445.75;5048951;28;19920;-85
2023/02/07 08:24:27;;;;;;;;;;;;;;;;;;5051306;28;19929;-85
2023/02/07 08:26:53;;;;;;;;;;;;;;;-2.80;100.00;66473.06;5048669;28;20776;-87
2023/02/07 08:29:18;;;;;;;;;;;;;;;-2.64;100.00;66489.91;5051465;28;19927;-86
2023/02/07 08:31:43;;;;;;;;;;;;;;;-2.59;100.00;66498.69;5050836;28;19952;-86
2023/02/07 08:34:10;;;;;;;;;;;;;;;-2.45;100.00;66510.63;5050788;28;19928;-86
2023/02/07 08:36:36;;;;;;;;;;;;;;;-2.36;100.00;66520.72;5051799;28;20028;-86
2023/02/07 08:39:01;;;;;;;;;;;;;;;-2.21;100.00;66537.56;5053043;28;20516;-86
2023/02/07 08:41:26;;;;;;;;;;;;;;;-2.16;100.00;66542.63;5053056;28;20066;-87
2023/02/07 08:43:51;;;;;;;;;;;;;;;-2.08;100.00;66551.59;5052275;28;20020;-86
2023/02/07 08:46:17;;;;;;;;;;;;;;;-2.03;100.00;66559.81;5052071;28;19921;-87
2023/02/07 08:48:42;;;;;;;;;;;;;;;;;;5054973;28;19921;-86
2023/02/07 08:51:08;;;;;;;;;;;;;;;-1.82;100.00;66582.81;5054050;28;19947;-87
2023/02/07 08:53:35;;;;;;;;;;;;;;;;;;5054684;28;20415;-86
2023/02/07 08:56:00;;;;;;;;;;;;;;;-1.60;100.00;66604.34;5054838;28;19947;-85
2023/02/07 08:58:26;;;;;;;;;;;;;;;-1.48;100.00;66617.25;5054748;28;19978;-86
2023/02/07 09:00:52;;;;;;;;;;;;;;;-1.40;100.00;66626.81;5055191;28;19971;-86
2023/02/07 09:03:17;;;;;;;;;;;;;;;;;;5055819;28;19924;-85
2023/02/07 09:05:42;;;;;;;;;;;;;;;-1.18;100.00;66650.38;5054785;28;19928;-86
2023/02/07 09:08:07;;;;;;;;;;;;;;;-1.13;100.00;66656.00;5056373;28;19925;-87
2023/02/07 09:10:32;;;;;;;;;;;;;;;-1.06;100.00;66663.31;5057733;28;19967;-85
2023/02/07 09:12:58;;;;;;;;;;;;;;;-0.99;100.00;66671.72;5056093;28;19921;-84
2023/02/07 09:15:23;;;;;;;;;;;;;;;-0.83;100.00;66689.16;5052131;28;19948;-86
2023/02/07 09:17:48;;;;;;;;;;;;;;;;;;5056511;28;19928;-86
2023/02/07 09:20:14;;;;;;;;;;;;;;;-0.70;100.00;66703.75;5054709;28;19988;-84
2023/02/07 09:25:23;;;;;;;;;;;;;;;-0.54;100.00;66723.22;5043908;28;19975;-85
2023/02/07 09:27:48;;;;;;;;;;;;;;;;;;5043270;28;19924;-84
2023/02/07 09:30:14;;;;;;;;;;;;;;;;;;5045762;28;19921;-85
2023/02/07 09:32:39;;;;;;;;;;;;;;;-0.30;100.00;66749.63;5046693;28;19936;-85
2023/02/07 09:35:07;;;;;;;;;;;;;;;-0.14;100.00;66767.63;5046527;28;19929;-86
2023/02/07 09:37:32;;;;;;;;;;;;;;;;;;5050119;28;20062;-85
2023/02/07 09:39:57;;;;;;;;;;;;;;;0.04;100.00;66784.69;5052964;28;19959;-85
2023/02/07 09:42:22;;;;;;;;;;;;;;;;;;5048683;28;19928;-86
2023/02/07 09:44:54;;;;;;;;;;;;;;;0.31;100.00;66813.91;5053546;28;20293;-87
2023/02/07 09:47:22;;;;;;;;;;;;;;;0.34;100.00;66817.84;5047179;28;19929;-84
2023/02/07 09:49:58;;;;;;;;;;;;;;;0.30;100.00;66813.34;5048807;28;19943;-87
2023/02/07 09:52:24;;;;;;;;;;;;;;;0.48;100.00;66833.03;5052925;28;19921;-87
2023/02/07 09:54:51;;;;;;;;;;;;;;;0.58;100.00;66843.72;5046648;28;19982;-83
2023/02/07 09:57:30;;;;;;;;;;;;;;;0.54;100.00;66839.22;5050689;28;20012;-85
2023/02/07 10:00:05;;;;;;;;;;;;;;;0.68;100.00;66855.53;5050743;28;19929;-87
2023/02/07 10:02:30;;;;;;;;;;;;;;;0.69;100.00;66856.09;5046058;28;20095;-85
2023/02/07 10:04:57;;;;;;;;;;;;;;;0.76;100.00;66855.56;5048373;28;20008;-84
2023/02/07 10:07:23;;;;;;;;;;;;;;;0.91;100.00;66880.28;5054926;28;19976;-85
2023/02/07 10:09:48;;;;;;;;;;;;;;;;;;5052736;28;19957;-86
2023/02/07 10:12:20;;;;;;;;;;;;;;;1.01;100.00;66891.53;5049560;28;20062;-84
2023/02/07 10:14:45;;;;;;;;;;;;;;;;;;5053527;28;19936;-84
2023/02/07 10:17:10;;;;;;;;;;;;;;;;;;5053115;28;19928;-86
2023/02/07 10:19:38;;;;;;;;;;;;;;;1.12;100.00;66903.94;5054363;28;19968;-87
2023/02/07 10:22:04;;;;;;;;;;;;;;;;;;5056259;28;19921;-86
2023/02/07 10:24:29;;;;;;;;;;;;;;;;;;5049916;28;19990;-85
2023/02/07 10:27:00;;;;;;;;;;;;;;;1.44;100.00;66938.81;5052208;28;19963;-86
2023/02/07 10:29:44;;;;;;;;;;;;;;;1.46;100.00;66935.25;5053324;28;19928;-86
2023/02/07 10:32:09;;;;;;;;;;;;;;;;;;5053201;28;19921;-87
2023/02/07 10:34:34;;;;;;;;;;;;;;;;;;5053725;28;19928;-88
2023/02/07 10:36:59;;;;;;;;;;;;;;;;;;5055091;28;19928;-84
2023/02/07 10:39:34;;;;;;;;;;;;;;;1.80;100.00;66972.97;5052571;28;19933;-86
2023/02/07 10:42:00;;;;;;;;;;;;;;;1.86;100.00;66984.97;5055622;28;20287;-85
2023/02/07 10:44:27;;;;;;;;;;;;;;;;;;5054921;28;19931;-87
2023/02/07 10:47:03;;;;;;;;;;;;;;;1.78;100.00;66970.72;5053651;28;19924;-86
2023/02/07 10:49:30;;;;;;;;;;;;;;;1.77;100.00;66974.84;5052580;28;19928;-88
2023/02/07 10:52:01;;;;;;;;;;;;;;;1.89;100.00;66982.56;5051147;28;19929;-86
2023/02/07 10:54:26;;;;;;;;;;;;;;;;;;5051723;28;20321;-84
2023/02/07 10:56:54;;;;;;;;;;;;;;;2.02;100.00;67003.00;5052440;28;19925;-85
2023/02/07 10:59:39;;;;;;;;;;;;;;;2.20;100.00;67016.91;5051685;28;20540;-86
2023/02/07 11:02:04;;;;;;;;;;;;;;;;;;5046382;28;19967;-85
2023/02/07 11:04:29;;;;;;;;;;;;;;;;;;5050338;28;19940;-85
2023/02/07 11:06:59;;;;;;;;;;;;;;;2.30;100.00;67038.66;5048626;28;19927;-83
2023/02/07 11:09:24;;;;;;;;;;;;;;;;;;5047870;28;20189;-85
2023/02/07 11:11:50;;;;;;;;;;;;;;;2.29;100.00;67027.03;5048184;28;19920;-85
2023/02/07 11:14:19;;;;;;;;;;;;;;;2.23;100.00;67020.84;5046261;28;20361;-81
2023/02/07 11:16:44;;;;;;;;;;;;;;;;;;5047015;28;19959;-84
2023/02/07 11:19:10;;;;;;;;;;;;;;;;;;5046141;28;19960;-86
2023/02/07 11:21:41;;;;;;;;;;;;;;;2.45;100.00;67045.06;5046313;28;19921;-85
2023/02/07 11:24:13;;;;;;;;;;;;;;;2.53;100.00;67052.97;5045143;28;19925;-85
2023/02/07 11:26:50;;;;;;;;;;;;;;;2.60;100.00;67060.84;5043586;28;19929;-84
2023/02/07 11:29:17;;;;;;;;;;;;;;;2.52;100.00;67057.09;5043259;28;20010;-85
2023/02/07 11:31:43;;;;;;;;;;;;;;;2.63;100.00;67070.03;5046193;28;19920;-81
2023/02/07 11:34:29;;;;;;;;;;;;;;;2.69;100.00;67076.25;5043955;28;20474;-84
2023/02/07 11:36:54;;;;;;;;;;;;;;;;;;5034238;28;19948;-85
2023/02/07 11:39:21;;;;;;;;;;;;;;;2.68;100.00;67069.88;5045337;28;19925;-81
2023/02/07 11:42:00;;;;;;;;;;;;;;;2.80;100.00;67082.84;5046728;28;19928;-85
2023/02/07 11:44:25;;;;;;;;;;;;;;;;;;5043906;28;19991;-80
2023/02/07 11:46:50;;;;;;;;;;;;;;;;;;5046287;28;20306;-81
2023/02/07 11:49:26;;;;;;;;;;;;;;;2.79;100.00;67082.28;5042942;28;20019;-83
2023/02/07 11:51:53;;;;;;;;;;;;;;;2.83;100.00;67094.09;5042559;28;19921;-84
2023/02/07 11:54:19;;;;;;;;;;;;;;;2.97;100.00;67106.69;5044501;28;20010;-85
2023/02/07 11:56:49;;;;;;;;;;;;;;;3.05;100.00;67118.31;5044047;28;19956;-82
2023/02/07 11:59:16;;;;;;;;;;;;;;;3.20;100.00;67135.25;5045196;28;19932;-85
2023/02/07 12:01:43;;;;;;;;;;;;;;;3.20;100.00;67132.63;5042113;28;20028;-83
2023/02/07 12:04:14;;;;;;;;;;;;;;;3.19;100.00;67125.66;5043763;28;20324;-82
2023/02/07 12:06:39;;;;;;;;;;;;;;;;;;5043375;28;20000;-82
2023/02/07 12:09:05;;;;;;;;;;;;;;;;;;5045597;28;20004;-81
2023/02/07 12:11:35;;;;;;;;;;;;;;;3.48;100.00;67163.63;5045204;28;19927;-85
2023/02/07 12:14:00;;;;;;;;;;;;;;;;;;5044815;28;19933;-84
2023/02/07 12:16:25;;;;;;;;;;;;;;;;;;5043268;28;19935;-86
2023/02/07 12:18:51;;;;;;;;;;;;;;;;;;5043828;28;19924;-80
2023/02/07 12:21:35;;;;;;;;;;;;;;;3.81;100.00;67194.47;5044855;28;20381;-80
2023/02/07 12:24:00;;;;;;;;;;;;;;;;;;5047444;28;19925;-82
2023/02/07 12:26:29;;;;;;;;;;;;;;;3.84;100.00;67203.69;5047002;28;20054;-85
2023/02/07 12:29:05;;;;;;;;;;;;;;;3.98;100.00;67213.66;5048284;28;20008;-84
2023/02/07 12:31:46;;;;;;;;;;;;;;;3.92;100.00;67206.88;5046257;28;19920;-83
2023/02/07 12:34:21;;;;;;;;;;;;;;;3.91;100.00;67205.75;5045010;28;19935;-85
2023/02/07 12:36:46;;;;;;;;;;;;;;;;;;5046297;28;19989;-82
2023/02/07 12:39:12;;;;;;;;;;;;;;;;;;5045255;28;20479;-84
2023/02/07 12:41:37;;;;;;;;;;;;;;;;;;5047009;28;20004;-81
2023/02/07 12:44:02;;;;;;;;;;;;;;;;;;5047558;28;20348;-83
2023/02/07 12:46:27;;;;;;;;;;;;;;;;;;5045635;28;20380;-84
2023/02/07 12:49:05;;;;;;;;;;;;;;;4.30;100.00;67248.63;5046926;28;19929;-83
2023/02/07 12:51:31;;;;;;;;;;;;;;;4.54;100.00;67280.41;5046466;28;20413;-82
2023/02/07 12:53:56;;;;;;;;;;;;;;;;;;5046662;28;20043;-85
2023/02/07 12:56:28;;;;;;;;;;;;;;;4.42;100.00;67262.16;5046891;28;19971;-82
2023/02/07 12:58:59;;;;;;;;;;;;;;;4.36;100.00;67254.84;5046413;28;20015;-80
2023/02/07 13:01:24;;;;;;;;;;;;;;;;;;5047326;28;20386;-82
2023/02/07 13:03:49;;;;;;;;;;;;;;;;;;5048672;28;20298;-81
2023/02/07 13:06:14;;;;;;;;;;;;;;;;;;5047474;28;19925;-84
2023/02/07 13:08:39;;;;;;;;;;;;;;;;;;5049848;28;19955;-81
2023/02/07 13:11:17;;;;;;;;;;;;;;;5.08;100.00;67339.72;5048592;28;19921;-85
2023/02/07 13:13:42;;;;;;;;;;;;;;;;;;5058829;28;19936;-81
2023/02/07 13:16:07;;;;;;;;;;;;;;;;;;5047935;28;19925;-81
2023/02/07 13:18:40;;;;;;;;;;;;;;;5.41;100.00;67371.16;5051256;28;19952;-82
2023/02/07 13:21:12;;;;;;;;;;;;;;;5.07;100.00;67333.31;5048556;28;19996;-83
2023/02/07 13:23:40;;;;;;;;;;;;;;;5.02;100.00;67328.22;5049107;28;20382;-83
2023/02/07 13:26:10;;;;;;;;;;;;;;;5.00;100.00;67325.97;5050993;28;20003;-82